Time;durP1;ratioP1;P1;durP2;ratioP2;P2;SDS_P1;SDS_P2;PMS_P1;PMS_P2;Temp;Humidity;BMP_temperature;BMP_pressure;BME280_temperature;BME280_humidity;BME280_pressure;Samples;Min_cycle;Max_cycle;Signal;HPM_P1;HPM_P2
2021/11/01 00:00:13;;;;;;;9.37;2.43;;;10.30;99.90;;;;;;4982211;28;20206;-50
2021/11/01 00:02:41;;;;;;;8.60;2.00;;;10.30;99.90;;;;;;4975425;28;20251;-50
2021/11/01 00:05:10;;;;;;;5.43;1.90;;;10.30;99.90;;;;;;4979055;28;20216;-52
2021/11/01 00:07:37;;;;;;;8.10;2.90;;;10.30;99.90;;;;;;4955768;28;20720;-51
2021/11/01 00:10:05;;;;;;;10.60;2.60;;;10.30;99.90;;;;;;4974552;28;20244;-50
2021/11/01 00:12:33;;;;;;;10.53;2.23;;;10.30;99.90;;;;;;4969745;28;20282;-50
2021/11/01 00:15:01;;;;;;;6.40;1.97;;;10.30;99.90;;;;;;4970307;28;20246;-49
2021/11/01 00:17:27;;;;;;;9.87;1.77;;;10.30;99.90;;;;;;4976342;28;20372;-49
2021/11/01 00:19:55;;;;;;;11.87;2.10;;;10.30;99.90;;;;;;4975371;28;20608;-52
2021/11/01 00:22:23;;;;;;;7.23;2.23;;;10.20;99.90;;;;;;4969404;28;20289;-51
2021/11/01 00:24:50;;;;;;;7.47;1.70;;;10.30;99.90;;;;;;4958668;28;20712;-50
2021/11/01 00:27:17;;;;;;;4.83;1.47;;;10.20;99.90;;;;;;4970178;28;20549;-50
2021/11/01 00:29:44;;;;;;;8.40;2.10;;;10.20;99.90;;;;;;4978936;28;20330;-50
2021/11/01 00:32:11;;;;;;;4.87;1.60;;;10.20;99.90;;;;;;4951900;28;20230;-50
2021/11/01 00:34:41;;;;;;;4.80;1.80;;;10.20;99.90;;;;;;4975136;28;20622;-50
2021/11/01 00:37:09;;;;;;;5.77;1.50;;;10.20;99.90;;;;;;4968699;28;20237;-51
2021/11/01 00:39:36;;;;;;;8.40;2.10;;;10.10;99.90;;;;;;4971048;28;20198;-49
2021/11/01 00:42:05;;;;;;;8.50;1.80;;;10.20;99.90;;;;;;4973801;28;20206;-50
2021/11/01 00:44:32;;;;;;;6.93;1.77;;;10.20;99.90;;;;;;4977759;28;20231;-51
2021/11/01 00:46:59;;;;;;;7.97;1.53;;;10.10;99.90;;;;;;4980621;28;20306;-51
2021/11/01 00:49:27;;;;;;;9.97;2.00;;;10.10;99.90;;;;;;4975650;28;20636;-52
2021/11/01 00:51:55;;;;;;;9.03;1.67;;;10.10;99.90;;;;;;4976948;28;20336;-50
2021/11/01 00:54:22;;;;;;;6.50;1.50;;;10.10;99.90;;;;;;4979340;28;20301;-51
2021/11/01 00:56:49;;;;;;;6.70;1.17;;;10.10;99.90;;;;;;4976369;28;20790;-50
2021/11/01 00:59:17;;;;;;;9.47;1.40;;;10.20;99.90;;;;;;4977383;28;20236;-49
2021/11/01 01:01:44;;;;;;;9.27;1.60;;;10.10;99.90;;;;;;4949621;28;20211;-50
2021/11/01 01:04:11;;;;;;;6.97;1.47;;;10.10;99.90;;;;;;4974607;28;20220;-50
2021/11/01 01:06:38;;;;;;;6.87;1.53;;;10.10;99.90;;;;;;4975947;28;20549;-49
2021/11/01 01:09:05;;;;;;;6.90;1.50;;;10.10;99.90;;;;;;4968272;28;20677;-49
2021/11/01 01:11:32;;;;;;;6.03;1.80;;;10.10;99.90;;;;;;4974619;28;20197;-50
2021/11/01 01:14:00;;;;;;;5.13;1.33;;;10.10;99.90;;;;;;4958086;28;20281;-49
2021/11/01 01:16:31;;;;;;;6.10;1.37;;;10.10;99.90;;;;;;4977495;28;20299;-51
2021/11/01 01:18:59;;;;;;;3.70;1.37;;;10.10;99.90;;;;;;4968296;28;20238;-50
2021/11/01 01:24:13;;;;;;;4.57;1.67;;;10.00;99.90;;;;;;4975822;28;20233;-52
2021/11/01 01:26:40;;;;;;;5.77;1.30;;;10.00;99.90;;;;;;4980040;28;20309;-51
2021/11/01 01:29:07;;;;;;;9.10;1.87;;;10.00;99.90;;;;;;4978584;28;20645;-49
2021/11/01 01:31:34;;;;;;;9.73;1.50;;;10.00;99.90;;;;;;4973862;28;20319;-49
2021/11/01 01:34:01;;;;;;;5.40;1.87;;;10.00;99.90;;;;;;4978736;28;20626;-49
2021/11/01 01:36:27;;;;;;;5.20;1.40;;;10.00;99.90;;;;;;4974731;28;20227;-52
2021/11/01 01:38:54;;;;;;;3.97;1.20;;;10.00;99.90;;;;;;4977504;28;20347;-53
2021/11/01 01:41:25;;;;;;;6.40;1.20;;;10.00;99.90;;;;;;4974322;28;20650;-50
2021/11/01 01:43:55;;;;;;;5.67;1.40;;;10.00;99.90;;;;;;4977565;28;20326;-51
2021/11/01 01:46:24;;;;;;;7.17;1.50;;;10.00;99.90;;;;;;4979654;28;20677;-51
2021/11/01 01:48:54;;;;;;;4.43;1.20;;;10.00;99.90;;;;;;4983494;28;20277;-50
2021/11/01 01:51:24;;;;;;;7.17;1.30;;;10.00;99.90;;;;;;4986321;28;20733;-50
2021/11/01 01:53:51;;;;;;;6.20;1.30;;;9.90;99.90;;;;;;4978851;28;20295;-50
2021/11/01 01:56:19;;;;;;;6.37;1.47;;;10.00;99.90;;;;;;4977315;28;20286;-50
2021/11/01 01:58:51;;;;;;;6.33;1.60;;;10.00;99.90;;;;;;4978059;28;20228;-50
2021/11/01 02:01:22;;;;;;;5.57;1.30;;;9.90;99.90;;;;;;4961375;28;20312;-53
2021/11/01 02:03:52;;;;;;;6.47;1.57;;;10.00;99.90;;;;;;4983015;28;20209;-51
2021/11/01 02:06:32;;;;;;;7.17;1.50;;;9.90;99.90;;;;;;4976884;28;20648;-51
2021/11/01 02:09:30;;;;;;;7.40;1.30;;;9.90;99.90;;;;;;4979686;28;20202;-52
2021/11/01 02:12:02;;;;;;;4.87;1.47;;;9.80;99.90;;;;;;4975197;28;20206;-51
2021/11/01 02:14:38;;;;;;;4.67;1.10;;;9.80;99.90;;;;;;4979556;28;20203;-50
2021/11/01 02:17:06;;;;;;;3.23;1.03;;;9.80;99.90;;;;;;4978071;28;20767;-50
2021/11/01 02:19:39;;;;;;;6.37;1.27;;;9.70;99.90;;;;;;4979535;28;20511;-51
2021/11/01 02:22:09;;;;;;;7.13;1.50;;;9.80;99.90;;;;;;4978565;28;20198;-50
2021/11/01 02:24:57;;;;;;;7.60;1.67;;;9.70;99.90;;;;;;4979324;28;20620;-50
2021/11/01 02:27:26;;;;;;;4.77;1.13;;;9.70;99.90;;;;;;4975497;28;20228;-52
2021/11/01 02:29:53;;;;;;;9.33;1.90;;;9.70;99.90;;;;;;4979847;28;20291;-51
2021/11/01 02:32:21;;;;;;;5.20;1.47;;;9.80;99.90;;;;;;4965935;28;20717;-52
2021/11/01 02:34:49;;;;;;;4.50;0.97;;;9.80;99.90;;;;;;4975737;28;20221;-51
2021/11/01 02:37:16;;;;;;;4.30;1.50;;;9.70;99.90;;;;;;4980794;28;20193;-52
2021/11/01 02:39:51;;;;;;;5.70;1.50;;;9.70;99.90;;;;;;4983234;28;20928;-50
2021/11/01 02:42:20;;;;;;;2.73;1.40;;;9.60;99.90;;;;;;4979331;28;20285;-50
2021/11/01 02:45:10;;;;;;;8.97;2.07;;;9.60;99.90;;;;;;4981788;28;20636;-51
2021/11/01 02:47:37;;;;;;;4.83;1.40;;;9.70;99.90;;;;;;4979977;28;20671;-50
2021/11/01 02:50:09;;;;;;;8.20;1.37;;;9.70;99.90;;;;;;4985056;28;20242;-50
2021/11/01 02:52:36;;;;;;;4.47;1.43;;;9.70;99.90;;;;;;4981227;28;20243;-51
2021/11/01 02:55:06;;;;;;;6.73;1.60;;;9.80;99.90;;;;;;4985046;28;20296;-52
2021/11/01 02:57:33;;;;;;;7.90;1.53;;;9.80;99.90;;;;;;4984000;28;20712;-51
2021/11/01 03:00:02;;;;;;;5.00;1.30;;;9.80;99.90;;;;;;4982796;28;20194;-50
2021/11/01 03:02:30;;;;;;;6.73;1.90;;;9.80;99.90;;;;;;4978753;28;20637;-51
2021/11/01 03:04:57;;;;;;;3.00;1.53;;;9.80;99.90;;;;;;4983410;28;20286;-50
2021/11/01 03:07:24;;;;;;;6.83;1.67;;;9.80;99.90;;;;;;4963882;28;20521;-51
2021/11/01 03:09:52;;;;;;;7.70;1.37;;;9.80;99.90;;;;;;4982407;28;20559;-52
2021/11/01 03:12:19;;;;;;;5.93;1.43;;;9.80;99.90;;;;;;4967970;28;20667;-51
2021/11/01 03:14:51;;;;;;;7.07;1.90;;;9.80;99.90;;;;;;4962994;28;20689;-51
2021/11/01 03:17:21;;;;;;;9.20;1.77;;;9.80;99.90;;;;;;4981847;28;20590;-50
2021/11/01 03:19:55;;;;;;;8.17;1.70;;;9.80;99.90;;;;;;4982216;28;20241;-50
2021/11/01 03:22:23;;;;;;;6.20;1.57;;;9.80;99.90;;;;;;4986033;28;20233;-50
2021/11/01 03:24:55;;;;;;;3.93;1.50;;;9.80;99.90;;;;;;4980411;28;20293;-52
2021/11/01 03:27:24;;;;;;;7.70;1.40;;;9.70;99.90;;;;;;4954014;28;20506;-51
2021/11/01 03:29:52;;;;;;;5.93;1.43;;;9.70;99.90;;;;;;4981772;28;20707;-52
2021/11/01 03:32:20;;;;;;;5.73;1.50;;;9.70;99.90;;;;;;4982181;28;20236;-51
2021/11/01 03:34:47;;;;;;;5.30;1.57;;;9.70;99.90;;;;;;4985023;28;20582;-50
2021/11/01 03:37:16;;;;;;;4.70;1.60;;;9.70;99.90;;;;;;4979591;28;20597;-50
2021/11/01 03:39:46;;;;;;;6.43;2.60;;;9.60;99.90;;;;;;4982599;28;20253;-51
2021/11/01 03:42:15;;;;;;;4.03;1.23;;;9.70;99.90;;;;;;4981540;28;20238;-51
2021/11/01 03:44:45;;;;;;;6.97;1.50;;;9.70;99.90;;;;;;4980800;28;20239;-53
2021/11/01 03:47:15;;;;;;;7.53;1.57;;;9.70;99.90;;;;;;4956834;28;20238;-51
2021/11/01 03:49:52;;;;;;;6.27;1.63;;;9.70;99.90;;;;;;4976861;28;20716;-53
2021/11/01 03:52:24;;;;;;;6.47;1.50;;;9.70;99.90;;;;;;4977332;28;20722;-52
2021/11/01 03:54:52;;;;;;;8.80;1.43;;;9.70;99.90;;;;;;4977233;28;20256;-51
2021/11/01 03:57:20;;;;;;;3.43;1.17;;;9.70;99.90;;;;;;4976053;28;20571;-50
2021/11/01 03:59:48;;;;;;;8.93;1.57;;;9.70;99.90;;;;;;4983564;28;20694;-51
2021/11/01 04:02:17;;;;;;;6.17;1.20;;;9.70;99.90;;;;;;4976744;28;20320;-50
2021/11/01 04:04:46;;;;;;;8.23;1.47;;;9.70;99.90;;;;;;4975471;28;20214;-51
2021/11/01 04:07:13;;;;;;;6.00;1.43;;;9.70;99.90;;;;;;4977216;28;20254;-50
2021/11/01 04:09:40;;;;;;;6.30;1.33;;;9.60;99.90;;;;;;4980115;28;20291;-52
2021/11/01 04:12:09;;;;;;;4.13;1.37;;;9.70;99.90;;;;;;4973476;28;20724;-51
2021/11/01 04:14:42;;;;;;;5.93;1.40;;;9.70;99.90;;;;;;4981818;28;20197;-51
2021/11/01 04:17:19;;;;;;;6.07;1.63;;;9.70;99.90;;;;;;4962024;28;20347;-52
2021/11/01 04:19:56;;;;;;;6.07;1.70;;;9.70;99.90;;;;;;4969442;28;20650;-52
2021/11/01 04:22:25;;;;;;;5.23;2.13;;;9.70;99.90;;;;;;4980019;28;20207;-51
2021/11/01 04:24:53;;;;;;;5.13;1.70;;;9.70;99.90;;;;;;4981749;28;20241;-51
2021/11/01 04:27:20;;;;;;;6.67;1.53;;;9.70;99.90;;;;;;4976274;28;20246;-50
2021/11/01 04:29:47;;;;;;;6.07;1.40;;;9.60;99.90;;;;;;4970513;28;20260;-51
2021/11/01 04:32:21;;;;;;;6.30;1.40;;;9.60;99.90;;;;;;4971560;28;20247;-51
2021/11/01 04:34:54;;;;;;;8.63;1.37;;;9.70;99.90;;;;;;4976938;28;20232;-50
2021/11/01 04:37:22;;;;;;;6.13;1.43;;;9.60;99.90;;;;;;4975479;28;20533;-50
2021/11/01 04:53:16;;;;;;;7.83;1.43;;;9.60;99.90;;;;;;4976556;28;20353;-51
2021/11/01 04:55:43;;;;;;;4.90;1.10;;;9.60;99.90;;;;;;4976205;28;20231;-51
2021/11/01 04:58:11;;;;;;;8.13;1.60;;;9.60;99.90;;;;;;4953401;28;20289;-50
2021/11/01 05:00:38;;;;;;;5.13;1.47;;;9.60;99.90;;;;;;4968673;28;20657;-51
2021/11/01 05:03:14;;;;;;;8.93;1.53;;;9.60;99.90;;;;;;4976960;28;20791;-50
2021/11/01 05:05:41;;;;;;;6.70;1.53;;;9.60;99.90;;;;;;4981005;28;20224;-50
2021/11/01 05:08:08;;;;;;;4.10;1.17;;;9.60;99.90;;;;;;4978555;28;20198;-51
2021/11/01 05:13:11;;;;;;;9.30;2.63;;;9.50;99.90;;;;;;4970862;28;20296;-53
2021/11/01 05:15:48;;;;;;;10.10;1.87;;;9.50;99.90;;;;;;4945086;28;20309;-51
2021/11/01 05:21:30;;;;;;;3.43;1.70;;;9.50;99.90;;;;;;4977636;28;20626;-51
2021/11/01 05:23:38;;;;;;;7.60;1.30;;;9.60;99.90;;;;;;4963702;28;20297;-51
2021/11/01 05:26:10;;;;;;;10.40;1.90;;;9.50;99.90;;;;;;4980096;28;20304;-51
2021/11/01 05:28:48;;;;;;;9.10;1.50;;;9.50;99.90;;;;;;4976701;28;20300;-50
2021/11/01 05:31:25;;;;;;;6.27;1.80;;;9.50;99.90;;;;;;4970927;28;20278;-51
2021/11/01 05:34:00;;;;;;;10.83;1.77;;;9.50;99.90;;;;;;4977980;28;20241;-51
2021/11/01 05:36:28;;;;;;;4.30;1.27;;;9.50;99.90;;;;;;4973134;28;20198;-51
2021/11/01 05:38:55;;;;;;;5.87;1.07;;;9.40;99.90;;;;;;4980417;28;20277;-50
2021/11/01 05:41:23;;;;;;;7.00;1.87;;;9.40;99.90;;;;;;4973022;28;20318;-53
2021/11/01 05:43:50;;;;;;;6.33;1.43;;;9.40;99.90;;;;;;4971852;28;20252;-51
2021/11/01 05:46:17;;;;;;;7.30;1.43;;;9.40;99.90;;;;;;4970657;28;20751;-53
2021/11/01 05:48:50;;;;;;;6.07;1.53;;;9.40;99.90;;;;;;4970714;28;20340;-51
2021/11/01 05:51:19;;;;;;;6.90;1.30;;;9.40;99.90;;;;;;4972361;28;20692;-53
2021/11/01 05:53:50;;;;;;;8.80;1.50;;;9.40;99.90;;;;;;4976629;28;20241;-53
2021/11/01 05:56:29;;;;;;;9.67;1.27;;;9.40;99.90;;;;;;4971976;28;20303;-52
2021/11/01 06:04:42;;;;;;;5.40;1.93;;;9.30;99.90;;;;;;4973495;28;20199;-53
2021/11/01 06:07:05;;;;;;;9.80;1.57;;;9.30;99.90;;;;;;4977523;28;20245;-51
2021/11/01 06:09:55;;;;;;;6.17;1.33;;;9.30;99.90;;;;;;4973932;28;20229;-51
2021/11/01 06:15:09;;;;;;;12.03;1.73;;;9.30;99.90;;;;;;4974694;28;20254;-50
2021/11/01 06:17:37;;;;;;;5.40;1.13;;;9.30;99.90;;;;;;4973581;28;20256;-51
2021/11/01 06:20:07;;;;;;;8.20;1.53;;;9.30;99.90;;;;;;4972450;28;20639;-50
2021/11/01 06:22:34;;;;;;;7.13;1.80;;;9.20;99.90;;;;;;4970604;28;20237;-53
2021/11/01 06:25:05;;;;;;;12.33;1.80;;;9.20;99.90;;;;;;4967061;28;20295;-50
2021/11/01 06:27:33;;;;;;;4.83;1.10;;;9.20;99.90;;;;;;4974557;28;20260;-50
2021/11/01 06:32:35;;;;;;;7.10;1.40;;;9.20;99.90;;;;;;4981872;28;20681;-52
2021/11/01 06:56:40;;;;;;;7.10;2.03;;;9.20;99.90;;;;;;4969372;28;20202;-51
2021/11/01 07:16:07;;;;;;;8.97;1.37;;;9.30;99.90;;;;;;4973025;28;20220;-51
2021/11/01 07:19:13;;;;;;;14.30;2.30;;;9.40;99.90;;;;;;4972160;28;20286;-51
2021/11/01 07:21:40;;;;;;;12.83;1.40;;;9.40;99.90;;;;;;4976995;28;20286;-51
2021/11/01 07:24:34;;;;;;;5.17;1.60;;;9.40;99.90;;;;;;4974800;28;20317;-51
2021/11/01 09:01:55;;;;;;;4.10;1.37;;;11.10;99.90;;;;;;4973059;28;20626;-52
2021/11/01 09:37:04;;;;;;;17.13;1.43;;;11.50;99.90;;;;;;4935775;28;20211;-50
2021/11/01 09:42:16;;;;;;;5.70;1.20;;;11.50;99.90;;;;;;4975003;28;20237;-51
2021/11/01 09:44:48;;;;;;;8.07;1.33;;;12.00;99.90;;;;;;4972397;28;20728;-50
2021/11/01 09:47:17;;;;;;;5.07;1.40;;;12.10;86.60;;;;;;4973091;28;20344;-50
2021/11/01 09:49:44;;;;;;;3.47;1.10;;;12.20;99.90;;;;;;4955594;28;20365;-50
2021/11/01 09:52:13;;;;;;;6.13;1.50;;;12.30;96.10;;;;;;4960591;28;20309;-49
2021/11/01 09:54:42;;;;;;;3.60;1.27;;;12.40;10.30;;;;;;4961277;28;20276;-51
2021/11/01 09:57:27;;;;;;;7.77;1.87;;;12.30;24.70;;;;;;4973969;28;20698;-53
2021/11/01 09:59:54;;;;;;;2.77;1.30;;;12.20;94.80;;;;;;4957360;28;20762;-51
2021/11/01 10:02:22;;;;;;;2.67;0.80;;;11.90;99.90;;;;;;4971348;28;20297;-50
2021/11/01 10:04:52;;;;;;;5.07;1.00;;;11.70;99.90;;;;;;4980573;28;20212;-50
2021/11/01 10:07:33;;;;;;;6.17;1.23;;;11.70;99.90;;;;;;4969125;28;20234;-50
2021/11/01 10:10:07;;;;;;;6.23;1.00;;;12.20;99.90;;;;;;4973038;28;20651;-49
2021/11/01 10:12:36;;;;;;;2.93;1.00;;;12.10;99.90;;;;;;4976269;28;20201;-49
2021/11/01 10:18:14;;;;;;;3.97;0.90;;;12.00;75.90;;;;;;4971152;28;20577;-50
2021/11/01 10:20:49;;;;;;;4.00;2.00;;;11.90;99.90;;;;;;4957366;28;20242;-48
2021/11/01 10:23:18;;;;;;;3.47;0.93;;;12.20;59.10;;;;;;4973288;28;20288;-50
2021/11/01 10:25:45;;;;;;;5.03;1.03;;;12.20;28.20;;;;;;4980308;28;20539;-49
2021/11/01 10:28:12;;;;;;;3.67;0.97;;;12.00;1.00;;;;;;4959890;28;20766;-50
2021/11/01 10:30:40;;;;;;;2.77;1.07;;;12.00;36.40;;;;;;4979144;28;20208;-49
2021/11/01 10:33:09;;;;;;;3.93;1.10;;;12.20;1.00;;;;;;4977225;28;20309;-49
2021/11/01 10:35:43;;;;;;;3.10;1.10;;;12.60;1.00;;;;;;4979081;28;20706;-49
2021/11/01 11:11:52;;;;;;;5.47;1.40;;;12.50;1.00;;;;;;4976380;28;20212;-50
2021/11/01 11:23:29;;;;;;;3.60;1.13;;;12.40;1.00;;;;;;4967759;28;20245;-49
2021/11/01 11:49:34;;;;;;;4.47;0.93;;;13.50;99.90;;;;;;4968696;28;20246;-49
2021/11/01 11:52:13;;;;;;;3.23;1.00;;;14.00;1.00;;;;;;4971320;28;20274;-49
2021/11/01 11:54:48;;;;;;;2.67;1.33;;;14.30;1.00;;;;;;4974195;28;20701;-50
2021/11/01 11:57:29;;;;;;;5.10;1.20;;;14.50;1.00;;;;;;4975814;28;20646;-49
2021/11/01 11:59:58;;;;;;;2.43;1.13;;;14.80;1.00;;;;;;4975784;28;20267;-50
2021/11/01 12:02:35;;;;;;;4.27;1.10;;;14.30;99.90;;;;;;4962565;28;20831;-49
2021/11/01 12:05:36;;;;;;;3.43;1.20;;;14.10;1.00;;;;;;4968348;28;20431;-49
2021/11/01 12:08:06;;;;;;;2.50;1.13;;;14.10;1.00;;;;;;4970391;28;20211;-48
2021/11/01 12:19:10;;;;;;;5.30;1.17;;;13.90;1.00;;;;;;4968169;28;20575;-48
2021/11/01 12:21:40;;;;;;;1.33;0.80;;;13.90;1.00;;;;;;4963114;28;21377;-48
2021/11/01 12:24:09;;;;;;;5.13;1.63;;;14.60;1.00;;;;;;4967382;28;20230;-48
2021/11/01 12:26:39;;;;;;;5.27;1.40;;;14.80;1.00;;;;;;4966869;28;20305;-48
2021/11/01 12:29:11;;;;;;;2.77;1.20;;;15.00;99.90;;;;;;4971960;28;20225;-50
2021/11/01 12:31:38;;;;;;;4.17;0.80;;;14.90;1.00;;;;;;4957904;28;20791;-50
2021/11/01 12:37:11;;;;;;;6.40;1.40;;;14.70;1.00;;;;;;4977102;28;20230;-50
2021/11/01 12:58:58;;;;;;;5.93;1.10;;;14.50;1.00;;;;;;4974265;28;20252;-49
2021/11/01 13:01:29;;;;;;;4.20;1.40;;;14.20;1.00;;;;;;4970119;28;20261;-49
2021/11/01 13:04:18;;;;;;;6.13;1.47;;;14.40;1.00;;;;;;4976538;28;20214;-49
2021/11/01 13:09:41;;;;;;;2.57;1.00;;;14.20;1.00;;;;;;4976324;28;20570;-49
2021/11/01 13:20:22;;;;;;;3.90;1.03;;;14.40;1.00;;;;;;4957606;28;20678;-49
2021/11/01 13:22:55;;;;;;;3.80;0.90;;;13.90;1.00;;;;;;4973544;28;20231;-58
2021/11/01 13:36:27;;;;;;;2.87;0.87;;;13.20;99.90;;;;;;4972268;28;20217;-56
2021/11/01 13:38:59;;;;;;;5.07;1.23;;;13.20;99.90;;;;;;4975672;28;20232;-56
2021/11/01 13:41:28;;;;;;;2.07;0.97;;;13.30;99.90;;;;;;4972982;28;20307;-55
2021/11/01 13:44:11;;;;;;;5.07;1.27;;;13.30;99.90;;;;;;4970401;28;20725;-54
2021/11/01 13:46:47;;;;;;;3.77;1.03;;;13.30;1.00;;;;;;4970595;28;20341;-55
2021/11/01 13:49:16;;;;;;;4.63;1.30;;;13.20;99.90;;;;;;4973499;28;20579;-55
2021/11/01 13:51:50;;;;;;;3.73;1.60;;;13.00;1.00;;;;;;4972266;28;20209;-55
2021/11/01 13:56:50;;;;;;;3.93;1.07;;;13.00;1.00;;;;;;4974958;28;20202;-56
2021/11/01 15:02:10;;;;;;;3.87;0.80;;;13.20;99.90;;;;;;4910295;29;20236;-51
2021/11/01 15:20:42;;;;;;;2.53;1.00;;;12.90;1.00;;;;;;4972559;28;20668;-49
2021/11/01 15:23:34;;;;;;;1.90;1.00;;;12.90;1.00;;;;;;4967136;28;20325;-49
2021/11/01 16:17:23;;;;;;;1.50;0.40;;;11.00;99.90;;;;;;4966013;28;20268;-49
2021/11/01 16:19:51;;;;;;;1.90;0.40;;;10.80;99.90;;;;;;4969233;28;20206;-48
2021/11/01 16:22:19;;;;;;;1.50;0.50;;;10.60;99.90;;;;;;4977816;28;20228;-51
2021/11/01 16:24:48;;;;;;;0.77;0.50;;;10.40;99.90;;;;;;4984772;28;21086;-50
2021/11/01 16:27:19;;;;;;;2.87;0.60;;;10.30;99.90;;;;;;4984683;28;20629;-50
2021/11/01 16:32:21;;;;;;;0.83;0.40;;;10.30;99.90;;;;;;4984383;28;20593;-50
2021/11/01 16:34:55;;;;;;;0.70;0.40;;;10.40;99.90;;;;;;4976106;28;20206;-49
2021/11/01 16:39:59;;;;;;;1.27;0.33;;;10.30;99.90;;;;;;4991958;28;20229;-49
2021/11/01 16:42:31;;;;;;;0.77;0.30;;;10.20;99.90;;;;;;4987259;28;20238;-49
2021/11/01 16:45:08;;;;;;;1.13;0.40;;;10.40;99.90;;;;;;4989205;28;20651;-48
2021/11/01 16:47:37;;;;;;;1.67;0.60;;;10.40;99.90;;;;;;4983598;28;20324;-50
2021/11/01 16:50:06;;;;;;;1.57;0.50;;;10.40;99.90;;;;;;4951393;28;20270;-49
2021/11/01 16:52:33;;;;;;;1.07;0.50;;;10.40;99.90;;;;;;4985161;28;20996;-50
2021/11/01 16:55:03;;;;;;;1.07;0.40;;;10.50;99.90;;;;;;4980772;28;20688;-50
2021/11/01 16:57:41;;;;;;;4.53;0.87;;;10.50;99.90;;;;;;4985731;28;20215;-50
2021/11/01 17:03:44;;;;;;;1.27;0.50;;;10.70;99.90;;;;;;4986190;28;20289;-48
2021/11/01 17:05:47;;;;;;;1.80;0.70;;;10.50;99.90;;;;;;4962320;28;20217;-49
2021/11/01 17:24:40;;;;;;;1.37;0.80;;;10.20;99.90;;;;;;4985616;28;20221;-49
2021/11/01 17:27:30;;;;;;;0.80;0.60;;;10.10;99.90;;;;;;4979510;28;20463;-50
2021/11/01 17:36:31;;;;;;;2.17;0.70;;;10.20;99.90;;;;;;4978406;28;20224;-49
2021/11/01 18:44:15;;;;;;;1.57;1.10;;;9.60;99.90;;;;;;4978202;28;20392;-50
2021/11/01 18:52:11;;;;;;;1.13;0.80;;;9.50;99.90;;;;;;4977142;28;20265;-49
2021/11/01 18:54:41;;;;;;;1.73;1.20;;;9.60;99.90;;;;;;4955844;28;21834;-49
2021/11/01 18:57:10;;;;;;;2.03;1.33;;;9.50;99.90;;;;;;4975858;28;20334;-50
2021/11/01 18:59:40;;;;;;;1.90;1.30;;;9.30;99.90;;;;;;4982236;28;20682;-51
2021/11/01 19:02:42;;;;;;;1.90;1.30;;;9.30;99.90;;;;;;4975630;28;20867;-51
2021/11/01 19:05:34;;;;;;;1.80;1.20;;;9.30;99.90;;;;;;4967457;28;20298;-49
2021/11/01 20:04:12;;;;;;;2.73;1.47;;;9.20;99.90;;;;;;4980201;28;20209;-51
2021/11/01 21:27:09;;;;;;;4.87;3.13;;;8.60;99.90;;;;;;4969294;28;20207;-50
2021/11/01 21:29:37;;;;;;;9.63;2.63;;;8.50;99.90;;;;;;4957479;28;20293;-49
2021/11/01 21:32:05;;;;;;;3.37;2.07;;;8.50;99.90;;;;;;4975097;28;20250;-51
2021/11/01 21:37:00;;;;;;;3.63;1.90;;;8.50;99.90;;;;;;4981296;28;20258;-50
2021/11/01 21:39:28;;;;;;;4.13;1.97;;;8.60;99.90;;;;;;4983349;28;20193;-52
2021/11/01 21:41:55;;;;;;;3.57;2.20;;;8.50;99.90;;;;;;4983332;28;20294;-52
2021/11/01 21:44:22;;;;;;;4.07;2.13;;;8.60;99.90;;;;;;4978539;28;20296;-50
2021/11/01 21:46:49;;;;;;;3.97;2.17;;;8.60;99.90;;;;;;4972125;28;20260;-51
2021/11/01 21:49:17;;;;;;;4.03;2.10;;;8.60;99.90;;;;;;4982427;28;20232;-50
2021/11/01 21:51:45;;;;;;;2.60;2.40;;;8.60;99.90;;;;;;4977776;28;20261;-50
2021/11/01 21:56:45;;;;;;;3.53;1.97;;;8.60;99.90;;;;;;4979273;28;20263;-53
2021/11/01 22:16:41;;;;;;;4.37;1.97;;;8.60;99.90;;;;;;4987532;28;21151;-50
2021/11/01 22:21:08;;;;;;;2.63;2.40;;;8.50;99.90;;;;;;4983210;28;20492;-52
2021/11/01 22:23:46;;;;;;;4.77;2.50;;;8.40;99.90;;;;;;4986218;28;20296;-52
2021/11/01 22:40:12;;;;;;;3.93;2.57;;;8.20;99.90;;;;;;4975338;28;20200;-50
2021/11/01 22:42:45;;;;;;;5.73;2.93;;;8.30;99.90;;;;;;4975926;28;20258;-52
2021/11/01 22:56:34;;;;;;;7.73;3.30;;;8.30;99.90;;;;;;4945021;28;20268;-52
2021/11/01 22:59:03;;;;;;;4.93;3.47;;;8.30;99.90;;;;;;4978614;28;20570;-51
2021/11/01 23:01:37;;;;;;;6.47;3.17;;;8.30;99.90;;;;;;4971977;28;20722;-50
2021/11/01 23:04:25;;;;;;;5.47;3.27;;;8.30;99.90;;;;;;4982012;28;20671;-50
2021/11/01 23:32:04;;;;;;;6.83;3.03;;;8.20;99.90;;;;;;4978301;28;20319;-50
2021/11/01 23:34:31;;;;;;;3.60;2.60;;;8.20;99.90;;;;;;4981231;28;20227;-51
2021/11/01 23:36:57;;;;;;;3.90;2.67;;;8.10;99.90;;;;;;4979043;28;20271;-51
2021/11/01 23:39:24;;;;;;;4.93;2.53;;;8.20;99.90;;;;;;4982581;28;20314;-51
2021/11/01 23:41:51;;;;;;;5.33;3.07;;;8.30;99.90;;;;;;4980082;28;20730;-50
2021/11/01 23:44:20;;;;;;;5.03;2.77;;;8.20;99.90;;;;;;4981148;28;20205;-51
2021/11/01 23:46:47;;;;;;;4.70;2.97;;;8.20;99.90;;;;;;4973754;28;20359;-50
2021/11/01 23:49:14;;;;;;;4.17;2.63;;;8.30;99.90;;;;;;4980824;28;20255;-51
2021/11/01 23:51:48;;;;;;;4.07;2.80;;;8.20;99.90;;;;;;4977620;28;20242;-52
2021/11/01 23:56:50;;;;;;;4.27;2.60;;;8.10;99.90;;;;;;4961284;28;20272;-50
2021/11/01 23:59:17;;;;;;;5.07;2.90;;;8.10;99.90;;;;;;4981301;28;20372;-50
